Time;durP1;ratioP1;P1;durP2;ratioP2;P2;SDS_P1;SDS_P2;PMS_P1;PMS_P2;Temp;Humidity;BMP_temperature;BMP_pressure;BME280_temperature;BME280_humidity;BME280_pressure;Samples;Min_cycle;Max_cycle;Signal;HPM_P1;HPM_P2
2021/07/31 00:01:27;;;;;;;9.83;9.03;;;17.90;99.90;;;;;;5053229;28;20588;-77
2021/07/31 00:03:53;;;;;;;10.03;9.13;;;18.00;99.90;;;;;;5053330;28;20178;-77
2021/07/31 00:06:19;;;;;;;9.53;8.70;;;17.90;99.90;;;;;;5035579;28;20193;-77
2021/07/31 00:08:45;;;;;;;10.77;9.73;;;17.90;99.90;;;;;;5035656;28;20182;-77
2021/07/31 00:11:12;;;;;;;10.40;9.37;;;17.90;99.90;;;;;;5052995;28;20173;-77
2021/07/31 00:13:37;;;;;;;9.70;8.70;;;17.90;99.90;;;;;;5053165;28;20205;-77
2021/07/31 00:16:04;;;;;;;10.97;9.53;;;17.90;99.90;;;;;;5052948;28;20595;-77
2021/07/31 00:18:30;;;;;;;10.23;9.00;;;17.90;99.90;;;;;;5053245;28;20173;-77
2021/07/31 00:20:57;;;;;;;13.73;9.67;;;17.90;99.90;;;;;;5053045;28;20177;-77
2021/07/31 00:23:26;;;;;;;10.87;9.37;;;17.90;99.90;;;;;;5053613;28;20168;-77
2021/07/31 00:25:53;;;;;;;11.03;9.97;;;17.80;99.90;;;;;;5053162;28;20170;-77
2021/07/31 00:28:19;;;;;;;10.27;9.30;;;17.80;99.90;;;;;;4994320;23;1497125;-75
2021/07/31 00:30:44;;;;;;;10.77;9.43;;;17.80;99.90;;;;;;5013316;28;20188;-75
2021/07/31 00:33:10;;;;;;;10.20;9.30;;;17.80;99.90;;;;;;5013196;28;20186;-75
2021/07/31 00:35:36;;;;;;;10.47;9.10;;;17.80;99.90;;;;;;4996595;28;20631;-75
2021/07/31 00:38:02;;;;;;;10.40;9.30;;;17.90;99.90;;;;;;5013031;28;20245;-75
2021/07/31 00:40:27;;;;;;;9.53;8.60;;;17.90;99.90;;;;;;5013194;28;20254;-75
2021/07/31 00:42:53;;;;;;;9.70;8.70;;;18.00;99.90;;;;;;4994520;28;20203;-74
2021/07/31 00:45:19;;;;;;;9.97;8.97;;;18.00;99.90;;;;;;4995906;28;20178;-75
2021/07/31 00:47:45;;;;;;;10.07;9.00;;;17.90;99.90;;;;;;5012901;28;20203;-75
2021/07/31 00:50:11;;;;;;;10.20;9.17;;;17.80;99.90;;;;;;4995248;28;20174;-75
2021/07/31 00:52:40;;;;;;;10.63;9.53;;;17.80;99.90;;;;;;4995323;28;20201;-75
2021/07/31 00:55:08;;;;;;;11.07;9.93;;;17.70;99.90;;;;;;5012491;28;20546;-75
2021/07/31 00:57:38;;;;;;;10.00;9.10;;;17.60;99.90;;;;;;4995451;28;20210;-75
2021/07/31 01:00:04;;;;;;;15.20;9.73;;;17.70;99.90;;;;;;5013106;28;20553;-75
2021/07/31 01:02:29;;;;;;;10.30;9.37;;;17.70;99.90;;;;;;5012964;28;20214;-77
2021/07/31 01:04:55;;;;;;;11.37;10.20;;;17.60;99.90;;;;;;5013205;28;20183;-75
2021/07/31 01:07:21;;;;;;;10.80;9.67;;;17.60;99.90;;;;;;5012890;28;20203;-75
2021/07/31 01:09:47;;;;;;;11.30;10.13;;;17.60;99.90;;;;;;4995146;28;20179;-75
2021/07/31 01:12:12;;;;;;;11.87;10.60;;;17.50;99.90;;;;;;5012651;28;20193;-75
2021/07/31 01:14:38;;;;;;;12.00;10.50;;;17.50;99.90;;;;;;4995536;28;20186;-75
2021/07/31 01:17:04;;;;;;;12.33;10.87;;;17.50;99.90;;;;;;5013128;28;20207;-76
2021/07/31 01:19:29;;;;;;;12.20;10.47;;;17.50;99.90;;;;;;5012694;28;20179;-75
2021/07/31 01:21:55;;;;;;;13.10;11.37;;;17.50;99.90;;;;;;4995018;28;20284;-75
2021/07/31 01:24:20;;;;;;;12.93;11.63;;;17.50;99.90;;;;;;5012569;28;20186;-75
2021/07/31 01:26:48;;;;;;;14.10;11.50;;;17.40;99.90;;;;;;5012638;28;20617;-76
2021/07/31 01:29:16;;;;;;;11.70;10.70;;;17.50;99.90;;;;;;5012833;28;20178;-75
2021/07/31 01:31:43;;;;;;;11.73;10.57;;;17.50;99.90;;;;;;4994797;28;20676;-76
2021/07/31 01:34:09;;;;;;;12.30;11.10;;;17.40;99.90;;;;;;5013513;28;20194;-76
2021/07/31 01:36:35;;;;;;;15.00;11.53;;;17.40;99.90;;;;;;5012121;28;20201;-76
2021/07/31 01:39:02;;;;;;;12.30;11.10;;;17.40;99.90;;;;;;5012369;28;20207;-76
2021/07/31 01:41:29;;;;;;;11.80;10.80;;;17.40;99.90;;;;;;5012372;28;20332;-76
2021/07/31 01:43:55;;;;;;;11.80;10.80;;;17.50;99.90;;;;;;5012314;28;20167;-75
2021/07/31 01:46:22;;;;;;;12.27;10.43;;;17.60;99.90;;;;;;5012571;28;20232;-76
2021/07/31 01:48:48;;;;;;;12.10;10.70;;;17.70;99.90;;;;;;5012602;28;20652;-76
2021/07/31 01:51:14;;;;;;;10.73;9.73;;;17.70;99.90;;;;;;5012481;28;20171;-76
2021/07/31 01:53:39;;;;;;;11.23;10.13;;;17.80;99.90;;;;;;4996129;28;20194;-76
2021/07/31 01:56:06;;;;;;;11.13;10.03;;;17.80;99.90;;;;;;4998269;28;20554;-76
2021/07/31 01:58:32;;;;;;;12.07;10.87;;;17.90;99.90;;;;;;4998171;28;20195;-76
2021/07/31 02:00:58;;;;;;;11.47;10.47;;;17.80;99.90;;;;;;5015791;28;20519;-76
2021/07/31 02:03:25;;;;;;;12.47;11.07;;;17.60;99.90;;;;;;5015819;28;20181;-76
2021/07/31 02:05:51;;;;;;;11.70;10.60;;;17.70;99.90;;;;;;5015936;28;20258;-76
2021/07/31 02:08:17;;;;;;;11.87;10.13;;;17.80;99.90;;;;;;4998092;28;20579;-76
2021/07/31 02:10:43;;;;;;;10.67;9.73;;;17.70;99.90;;;;;;5015571;28;20179;-76
2021/07/31 02:13:09;;;;;;;10.57;9.50;;;17.80;99.90;;;;;;5015520;28;20214;-76
2021/07/31 02:15:45;;;;;;;10.93;9.93;;;17.80;99.90;;;;;;5015554;28;20179;-76
2021/07/31 02:18:11;;;;;;;11.53;10.43;;;17.70;99.90;;;;;;4997790;28;20195;-75
2021/07/31 02:20:38;;;;;;;11.00;10.10;;;17.80;99.90;;;;;;5013894;28;20187;-76
2021/07/31 02:23:04;;;;;;;11.33;10.20;;;17.80;99.90;;;;;;5012173;28;20200;-76
2021/07/31 02:25:30;;;;;;;10.83;9.87;;;17.80;99.90;;;;;;5022001;28;20183;-77
2021/07/31 02:27:56;;;;;;;11.23;10.00;;;17.90;99.90;;;;;;5013056;28;20214;-75
2021/07/31 02:30:22;;;;;;;10.60;9.60;;;17.90;99.90;;;;;;5014107;28;20258;-76
2021/07/31 02:32:48;;;;;;;10.37;9.43;;;17.90;99.90;;;;;;5014541;28;20225;-76
2021/07/31 02:35:13;;;;;;;12.37;9.97;;;17.90;99.90;;;;;;5014978;28;20171;-76
2021/07/31 02:37:40;;;;;;;10.63;9.63;;;18.00;99.90;;;;;;5015094;28;20202;-76
2021/07/31 02:40:07;;;;;;;10.37;9.57;;;17.90;99.90;;;;;;4997453;28;20186;-76
2021/07/31 02:42:33;;;;;;;11.03;9.93;;;18.00;99.90;;;;;;5014925;28;20211;-76
2021/07/31 02:45:01;;;;;;;10.70;9.67;;;18.00;99.90;;;;;;5014968;28;20189;-76
2021/07/31 02:47:27;;;;;;;10.40;9.23;;;17.90;99.90;;;;;;5014828;28;20312;-76
2021/07/31 02:49:52;;;;;;;11.43;10.33;;;18.00;99.90;;;;;;4997966;28;20195;-76
2021/07/31 02:52:18;;;;;;;11.00;9.90;;;17.80;99.90;;;;;;5014781;28;20187;-75
2021/07/31 02:54:44;;;;;;;10.70;9.67;;;17.80;99.90;;;;;;5015007;28;20218;-76
2021/07/31 02:57:09;;;;;;;10.60;9.70;;;17.70;99.90;;;;;;5014707;28;20199;-76
2021/07/31 02:59:35;;;;;;;10.83;9.93;;;17.60;99.90;;;;;;5014677;28;20532;-76
2021/07/31 03:02:01;;;;;;;12.60;9.97;;;17.50;99.90;;;;;;5014259;28;20220;-76
2021/07/31 03:04:26;;;;;;;11.50;10.37;;;17.40;99.90;;;;;;5014552;28;20178;-76
2021/07/31 03:06:52;;;;;;;11.03;9.97;;;17.30;99.90;;;;;;5013772;28;20203;-76
2021/07/31 03:09:17;;;;;;;10.77;9.77;;;17.20;99.90;;;;;;4996909;28;20545;-76
2021/07/31 03:11:43;;;;;;;12.63;10.77;;;17.20;99.90;;;;;;5014600;28;20206;-76
2021/07/31 03:14:09;;;;;;;13.47;10.87;;;17.20;99.90;;;;;;5014681;28;20197;-76
2021/07/31 03:16:34;;;;;;;11.93;10.00;;;17.20;99.90;;;;;;5014469;28;20175;-76
2021/07/31 03:19:00;;;;;;;12.43;10.57;;;17.30;99.90;;;;;;5014541;28;20183;-77
2021/07/31 03:21:26;;;;;;;12.33;10.27;;;17.30;99.90;;;;;;5014518;28;20236;-76
2021/07/31 03:23:51;;;;;;;12.03;11.03;;;17.20;99.90;;;;;;5014490;28;20521;-76
2021/07/31 03:26:17;;;;;;;11.63;10.27;;;17.20;99.90;;;;;;5014566;28;20182;-76
2021/07/31 03:28:43;;;;;;;12.00;10.90;;;17.20;99.90;;;;;;5014222;28;20327;-76
2021/07/31 03:31:09;;;;;;;11.23;10.13;;;17.20;99.90;;;;;;5014366;28;20663;-76
2021/07/31 03:33:34;;;;;;;12.40;11.20;;;17.20;99.90;;;;;;4996719;28;20262;-77
2021/07/31 03:36:00;;;;;;;11.60;10.60;;;17.20;99.90;;;;;;4996611;28;20555;-76
2021/07/31 03:38:26;;;;;;;11.93;10.80;;;17.20;99.90;;;;;;5013543;28;20565;-76
2021/07/31 03:40:52;;;;;;;11.70;10.60;;;17.20;99.90;;;;;;5014264;28;20252;-76
2021/07/31 03:43:18;;;;;;;11.33;10.43;;;17.20;99.90;;;;;;5013113;28;20202;-76
2021/07/31 03:45:43;;;;;;;10.73;9.80;;;17.20;99.90;;;;;;5013768;28;20179;-76
2021/07/31 03:48:09;;;;;;;16.47;10.77;;;17.30;99.90;;;;;;5012610;28;20674;-77
2021/07/31 03:50:40;;;;;;;11.63;10.60;;;17.40;99.90;;;;;;5012866;28;20654;-76
2021/07/31 03:53:05;;;;;;;13.10;10.97;;;17.40;99.90;;;;;;4994840;28;20218;-76
2021/07/31 03:55:31;;;;;;;12.30;11.03;;;17.50;99.90;;;;;;5012691;28;20200;-77
2021/07/31 03:57:56;;;;;;;11.83;10.73;;;17.50;99.90;;;;;;4994737;28;20689;-77
2021/07/31 04:00:22;;;;;;;11.60;10.40;;;17.60;99.90;;;;;;5009954;28;20244;-78
2021/07/31 04:02:48;;;;;;;10.50;9.10;;;17.60;99.90;;;;;;5009723;28;20210;-76
2021/07/31 04:05:14;;;;;;;11.17;9.53;;;17.50;99.90;;;;;;5010498;28;20179;-76
2021/07/31 04:07:39;;;;;;;10.10;9.20;;;17.50;99.90;;;;;;5011138;28;20219;-76
2021/07/31 04:10:06;;;;;;;9.00;8.10;;;17.50;99.90;;;;;;4992518;28;20552;-76
2021/07/31 04:12:31;;;;;;;11.80;8.47;;;17.60;99.90;;;;;;5011643;28;20557;-76
2021/07/31 04:14:57;;;;;;;9.97;9.03;;;17.40;99.90;;;;;;5011484;28;20182;-77
2021/07/31 04:17:23;;;;;;;11.10;10.20;;;17.30;99.90;;;;;;4994092;28;20206;-76
2021/07/31 04:19:50;;;;;;;12.17;10.97;;;17.10;99.90;;;;;;5012555;28;20209;-76
2021/07/31 04:22:16;;;;;;;13.30;12.00;;;17.10;99.90;;;;;;5013313;28;20206;-76
2021/07/31 04:24:42;;;;;;;12.23;10.90;;;17.10;99.90;;;;;;4995633;28;20190;-76
2021/07/31 04:27:07;;;;;;;11.77;10.60;;;17.10;99.90;;;;;;5013170;28;20272;-76
2021/07/31 04:29:33;;;;;;;11.63;10.53;;;17.20;99.90;;;;;;4995911;28;20182;-76
2021/07/31 04:31:59;;;;;;;12.67;11.57;;;17.20;99.90;;;;;;5001254;28;20542;-76
2021/07/31 04:34:28;;;;;;;12.60;11.33;;;17.10;99.90;;;;;;4995514;28;20602;-76
2021/07/31 04:36:54;;;;;;;12.73;10.97;;;17.10;99.90;;;;;;5012882;28;20213;-77
2021/07/31 04:39:20;;;;;;;12.43;10.47;;;17.10;99.90;;;;;;5012059;28;20185;-76
2021/07/31 04:41:45;;;;;;;13.67;10.83;;;17.10;99.90;;;;;;5012899;28;20206;-76
2021/07/31 04:44:11;;;;;;;11.03;10.03;;;17.10;99.90;;;;;;5013180;28;20655;-76
2021/07/31 04:46:36;;;;;;;10.80;9.80;;;17.20;99.90;;;;;;5011979;28;20210;-76
2021/07/31 04:49:02;;;;;;;12.33;9.67;;;17.20;99.90;;;;;;5011434;28;20407;-76
2021/07/31 04:51:28;;;;;;;12.20;9.87;;;17.10;99.90;;;;;;4991717;28;20723;-77
2021/07/31 04:53:53;;;;;;;11.50;8.87;;;17.10;99.90;;;;;;4991925;28;20202;-77
2021/07/31 04:56:19;;;;;;;10.23;9.33;;;17.20;99.90;;;;;;4993017;28;20662;-76
2021/07/31 04:58:45;;;;;;;9.97;8.80;;;17.20;99.90;;;;;;4993776;28;20300;-77
2021/07/31 05:01:10;;;;;;;9.97;9.07;;;17.20;99.90;;;;;;4993062;28;20181;-77
2021/07/31 05:03:36;;;;;;;9.50;8.43;;;17.20;99.90;;;;;;5011745;28;20178;-76
2021/07/31 05:06:05;;;;;;;9.57;8.67;;;17.20;99.90;;;;;;5010229;28;20189;-76
2021/07/31 05:08:31;;;;;;;9.17;8.23;;;17.30;99.90;;;;;;5010582;28;20194;-76
2021/07/31 05:10:57;;;;;;;10.00;9.10;;;17.30;99.90;;;;;;5010318;28;20202;-76
2021/07/31 05:13:22;;;;;;;9.03;8.13;;;17.40;99.90;;;;;;4992755;28;20232;-76
2021/07/31 05:15:48;;;;;;;10.20;8.10;;;17.40;99.90;;;;;;5010526;28;20181;-76
2021/07/31 05:18:14;;;;;;;8.57;7.77;;;17.50;99.90;;;;;;4992607;28;20217;-76
2021/07/31 05:20:44;;;;;;;7.83;7.17;;;17.50;99.90;;;;;;5010420;28;20183;-76
2021/07/31 05:23:12;;;;;;;8.97;7.00;;;17.50;99.90;;;;;;5010248;28;20212;-76
2021/07/31 05:25:38;;;;;;;7.63;6.93;;;17.60;99.90;;;;;;5005203;28;20300;-76
2021/07/31 05:28:03;;;;;;;8.13;7.30;;;17.70;99.90;;;;;;5011344;28;20218;-76
2021/07/31 05:30:29;;;;;;;7.93;7.23;;;17.80;99.90;;;;;;4996367;28;20178;-76
2021/07/31 05:32:55;;;;;;;7.57;6.83;;;17.80;99.90;;;;;;5014143;28;20183;-76
2021/07/31 05:35:20;;;;;;;9.80;7.60;;;17.70;99.90;;;;;;5013933;28;20197;-77
2021/07/31 05:37:46;;;;;;;8.93;8.13;;;17.60;99.90;;;;;;4996115;28;20207;-76
2021/07/31 05:40:12;;;;;;;8.63;7.27;;;17.70;99.90;;;;;;5013842;28;20276;-76
2021/07/31 05:42:40;;;;;;;9.20;7.60;;;17.70;99.90;;;;;;5014837;28;20202;-76
2021/07/31 05:45:09;;;;;;;7.90;7.20;;;17.70;99.90;;;;;;5015271;28;20240;-76
2021/07/31 05:47:35;;;;;;;7.70;7.00;;;17.80;99.90;;;;;;4997279;28;20198;-76
2021/07/31 05:50:05;;;;;;;8.10;7.40;;;17.80;99.90;;;;;;4996159;28;20230;-77
2021/07/31 05:52:33;;;;;;;8.57;7.10;;;17.80;99.90;;;;;;5013795;28;20193;-76
2021/07/31 05:54:58;;;;;;;7.73;6.70;;;17.80;99.90;;;;;;4998707;28;20630;-76
2021/07/31 05:57:24;;;;;;;7.50;6.80;;;17.80;99.90;;;;;;4995554;28;20205;-77
2021/07/31 05:59:50;;;;;;;7.83;6.67;;;17.90;99.90;;;;;;5004078;28;20188;-77
2021/07/31 06:02:17;;;;;;;8.63;6.67;;;18.00;99.90;;;;;;5014524;28;20199;-77
2021/07/31 06:04:43;;;;;;;7.33;6.70;;;18.20;99.90;;;;;;5013120;28;20187;-76
2021/07/31 06:07:10;;;;;;;7.67;6.83;;;18.10;99.90;;;;;;5015368;28;20550;-77
2021/07/31 06:09:40;;;;;;;7.07;6.37;;;18.10;99.90;;;;;;5022585;28;20163;-81
2021/07/31 06:12:10;;;;;;;13.87;7.00;;;18.20;99.90;;;;;;5026385;28;20651;-81
2021/07/31 06:14:40;;;;;;;7.33;6.40;;;18.20;99.90;;;;;;5026056;28;20554;-80
2021/07/31 06:17:07;;;;;;;9.37;6.43;;;18.30;99.90;;;;;;5026615;28;20199;-81
2021/07/31 06:19:33;;;;;;;7.30;6.40;;;18.40;99.90;;;;;;5025458;28;20183;-81
2021/07/31 06:22:00;;;;;;;7.03;5.80;;;18.30;99.90;;;;;;5006303;28;20203;-80
2021/07/31 06:24:26;;;;;;;7.47;5.70;;;18.20;99.90;;;;;;5022110;28;20175;-81
2021/07/31 06:29:35;;;;;;;6.43;5.80;;;18.10;99.90;;;;;;5055619;28;20561;-79
2021/07/31 06:32:02;;;;;;;7.60;5.60;;;18.00;99.90;;;;;;5056396;28;20227;-77
2021/07/31 06:34:28;;;;;;;6.37;5.47;;;18.00;99.90;;;;;;5056683;28;20208;-79
2021/07/31 06:36:53;;;;;;;6.23;5.50;;;18.10;99.90;;;;;;5057262;28;20570;-78
2021/07/31 06:39:19;;;;;;;6.13;5.60;;;18.10;99.90;;;;;;5037090;28;20222;-79
2021/07/31 06:41:44;;;;;;;8.13;5.90;;;18.10;99.90;;;;;;5035233;28;20277;-81
2021/07/31 06:44:10;;;;;;;5.37;4.87;;;18.20;99.90;;;;;;5019431;28;20205;-80
2021/07/31 06:46:36;;;;;;;4.90;4.50;;;18.20;99.90;;;;;;5036430;28;20545;-79
2021/07/31 06:49:01;;;;;;;4.97;4.50;;;18.30;99.90;;;;;;5036517;28;20190;-81
2021/07/31 06:51:27;;;;;;;7.03;4.83;;;18.30;99.90;;;;;;5036631;28;20182;-80
2021/07/31 06:53:53;;;;;;;5.03;4.53;;;18.40;99.90;;;;;;5036546;28;20237;-80
2021/07/31 06:56:18;;;;;;;5.17;4.70;;;18.50;99.90;;;;;;5036701;28;20179;-80
2021/07/31 06:58:44;;;;;;;5.90;4.80;;;18.60;99.90;;;;;;5036413;28;20207;-79
2021/07/31 07:01:11;;;;;;;4.70;4.30;;;18.70;99.90;;;;;;5018687;28;20174;-80
2021/07/31 07:03:37;;;;;;;4.90;4.50;;;18.80;99.90;;;;;;5018575;28;20232;-80
2021/07/31 07:06:07;;;;;;;4.77;4.37;;;18.90;99.90;;;;;;5038615;28;20260;-79
2021/07/31 07:08:33;;;;;;;4.90;4.40;;;18.90;99.90;;;;;;5018648;28;20199;-80
2021/07/31 07:11:02;;;;;;;4.80;4.30;;;18.90;99.90;;;;;;5036320;28;20658;-78
2021/07/31 07:13:28;;;;;;;5.53;5.10;;;18.80;99.90;;;;;;5036142;28;20270;-80
2021/07/31 07:15:54;;;;;;;5.40;4.83;;;18.50;99.90;;;;;;5035975;28;20189;-80
2021/07/31 07:18:20;;;;;;;5.67;5.17;;;18.40;99.90;;;;;;5017859;28;20632;-78
2021/07/31 07:20:46;;;;;;;5.07;4.63;;;18.40;99.90;;;;;;5035876;28;20214;-81
2021/07/31 07:23:12;;;;;;;7.80;4.90;;;18.40;99.90;;;;;;5036327;28;20190;-79
2021/07/31 07:25:41;;;;;;;7.10;5.77;;;18.40;99.90;;;;;;5035888;28;20182;-79
2021/07/31 07:28:07;;;;;;;5.40;4.90;;;18.40;99.90;;;;;;5035766;28;20625;-80
2021/07/31 07:30:32;;;;;;;5.87;5.27;;;18.50;99.90;;;;;;5035714;28;20265;-79
2021/07/31 07:32:58;;;;;;;5.97;5.47;;;18.40;99.90;;;;;;5035733;28;20174;-79
2021/07/31 07:35:24;;;;;;;6.03;5.10;;;18.40;99.90;;;;;;5035466;28;20174;-81
2021/07/31 07:37:49;;;;;;;10.37;5.13;;;18.40;99.90;;;;;;5018179;28;20669;-80
2021/07/31 07:40:15;;;;;;;5.43;4.23;;;18.40;99.90;;;;;;5017599;28;20189;-80
2021/07/31 07:42:41;;;;;;;5.33;4.83;;;18.50;99.90;;;;;;5017823;28;20202;-79
2021/07/31 07:45:08;;;;;;;5.90;4.47;;;18.40;99.90;;;;;;5017530;28;20179;-78
2021/07/31 07:47:34;;;;;;;6.23;4.50;;;18.50;99.90;;;;;;5027471;28;20604;-79
2021/07/31 07:50:01;;;;;;;5.13;4.73;;;18.50;99.90;;;;;;5017412;28;20187;-79
2021/07/31 07:52:27;;;;;;;4.80;3.90;;;18.50;99.90;;;;;;5035219;28;20726;-79
2021/07/31 07:54:52;;;;;;;4.30;3.90;;;18.60;99.90;;;;;;5018487;28;20186;-80
2021/07/31 07:57:18;;;;;;;3.67;3.30;;;18.90;99.90;;;;;;5035594;28;20182;-80
2021/07/31 07:59:44;;;;;;;3.13;2.87;;;18.90;99.90;;;;;;5035952;28;20181;-80
2021/07/31 08:02:09;;;;;;;3.67;2.77;;;18.90;99.90;;;;;;5017629;28;20198;-80
2021/07/31 08:04:35;;;;;;;2.80;2.60;;;18.90;99.90;;;;;;5017864;28;20269;-80
2021/07/31 08:07:00;;;;;;;3.67;2.80;;;18.90;99.90;;;;;;5018045;28;20197;-79
2021/07/31 08:09:26;;;;;;;3.10;2.70;;;19.10;99.90;;;;;;5018238;28;20174;-81
2021/07/31 08:11:52;;;;;;;3.70;3.13;;;19.10;99.90;;;;;;5018061;28;20182;-81
2021/07/31 08:14:18;;;;;;;5.90;3.00;;;19.20;99.90;;;;;;5035647;28;20213;-80
2021/07/31 08:16:43;;;;;;;3.03;2.77;;;19.20;99.90;;;;;;5017961;28;20217;-80
2021/07/31 08:19:10;;;;;;;2.80;2.60;;;19.20;99.90;;;;;;5035399;28;20202;-80
2021/07/31 08:21:39;;;;;;;4.17;3.00;;;19.40;99.90;;;;;;5035548;28;20206;-80
2021/07/31 08:24:06;;;;;;;5.57;3.07;;;19.40;99.90;;;;;;5035671;28;20642;-80
2021/07/31 08:26:32;;;;;;;5.20;2.70;;;19.40;99.90;;;;;;5035478;28;20686;-80
2021/07/31 08:28:58;;;;;;;4.13;2.70;;;19.50;99.90;;;;;;5028709;28;20250;-80
2021/07/31 08:31:24;;;;;;;4.67;2.77;;;19.50;99.90;;;;;;5034932;28;20178;-80
2021/07/31 08:33:50;;;;;;;3.03;2.70;;;19.50;99.90;;;;;;5035294;28;20593;-80
2021/07/31 08:36:16;;;;;;;5.13;3.10;;;19.60;99.90;;;;;;5033473;28;20213;-80
2021/07/31 08:38:41;;;;;;;3.33;2.90;;;19.70;99.90;;;;;;5034929;28;20238;-79
2021/07/31 08:41:08;;;;;;;3.63;2.60;;;19.70;99.90;;;;;;5033418;28;20233;-80
2021/07/31 08:43:34;;;;;;;4.03;2.60;;;19.70;99.90;;;;;;5035002;28;20202;-78
2021/07/31 08:46:05;;;;;;;4.87;2.50;;;19.70;99.90;;;;;;5033824;28;20650;-78
2021/07/31 08:48:32;;;;;;;3.03;2.43;;;19.70;99.90;;;;;;5033144;28;20232;-78
2021/07/31 08:51:00;;;;;;;2.77;2.43;;;19.80;99.90;;;;;;5033545;28;20186;-80
2021/07/31 08:53:30;;;;;;;3.33;2.60;;;19.80;99.90;;;;;;5034754;28;20190;-80
2021/07/31 08:56:00;;;;;;;3.13;2.50;;;19.80;99.90;;;;;;5034235;28;20178;-80
2021/07/31 08:58:27;;;;;;;4.00;2.20;;;19.90;99.90;;;;;;5037330;28;20625;-80
2021/07/31 09:00:54;;;;;;;3.03;2.33;;;19.80;99.90;;;;;;5032831;28;20220;-79
2021/07/31 09:03:20;;;;;;;3.63;2.30;;;19.70;99.90;;;;;;5034989;28;20198;-79
2021/07/31 09:05:47;;;;;;;5.33;2.30;;;19.80;99.90;;;;;;5039018;28;20185;-79
2021/07/31 09:08:13;;;;;;;3.43;2.73;;;19.80;99.90;;;;;;5036946;28;20331;-79
2021/07/31 09:10:40;;;;;;;4.53;2.60;;;19.80;99.90;;;;;;5038745;28;20273;-80
2021/07/31 09:13:14;;;;;;;2.80;1.90;;;20.00;99.90;;;;;;5037362;28;20182;-79
2021/07/31 09:15:45;;;;;;;4.80;2.20;;;19.90;99.90;;;;;;5038459;28;20654;-79
2021/07/31 09:18:34;;;;;;;3.77;2.40;;;19.90;99.90;;;;;;5037683;28;20281;-79
2021/07/31 09:21:12;;;;;;;3.63;2.53;;;19.90;99.90;;;;;;5037118;28;20185;-78
2021/07/31 09:23:48;;;;;;;5.87;2.40;;;20.00;99.90;;;;;;5017135;28;20293;-79
2021/07/31 09:26:21;;;;;;;3.70;2.80;;;20.00;99.90;;;;;;5033454;28;20170;-80
2021/07/31 09:29:08;;;;;;;4.63;2.10;;;19.90;99.90;;;;;;5038279;28;20222;-79
2021/07/31 09:31:49;;;;;;;5.70;2.57;;;19.90;99.90;;;;;;5020240;28;20593;-80
2021/07/31 09:34:37;;;;;;;3.50;2.53;;;20.00;99.90;;;;;;5038448;28;20204;-79
2021/07/31 09:37:07;;;;;;;3.97;2.43;;;19.90;99.90;;;;;;5038043;28;20178;-79
2021/07/31 09:39:54;;;;;;;4.27;2.23;;;20.00;99.90;;;;;;5038042;28;20175;-79
2021/07/31 09:42:31;;;;;;;4.10;2.50;;;20.00;99.90;;;;;;5020198;28;20197;-78
2021/07/31 09:45:00;;;;;;;3.60;2.50;;;20.10;99.90;;;;;;5037875;28;20201;-80
2021/07/31 09:47:25;;;;;;;4.43;2.33;;;20.10;99.90;;;;;;5037363;28;20605;-78
2021/07/31 09:49:53;;;;;;;3.80;2.40;;;20.10;99.90;;;;;;5038087;28;20178;-79
2021/07/31 09:52:23;;;;;;;4.60;2.50;;;20.10;99.90;;;;;;5037423;28;20549;-80
2021/07/31 09:54:50;;;;;;;3.37;2.27;;;20.00;99.90;;;;;;5039433;28;20248;-79
2021/07/31 09:57:16;;;;;;;2.10;1.90;;;19.90;99.90;;;;;;5021187;28;20178;-79
2021/07/31 09:59:47;;;;;;;4.93;2.67;;;19.80;99.90;;;;;;5037387;28;20189;-79
2021/07/31 10:02:20;;;;;;;3.93;2.40;;;19.90;99.90;;;;;;5037254;28;20201;-77
2021/07/31 10:04:47;;;;;;;5.70;2.50;;;19.90;99.90;;;;;;5019408;28;20174;-78
2021/07/31 10:07:14;;;;;;;3.10;2.10;;;19.80;99.90;;;;;;5037255;28;20674;-78
2021/07/31 10:09:49;;;;;;;2.80;2.33;;;19.80;99.90;;;;;;5037295;28;20170;-79
2021/07/31 10:12:17;;;;;;;6.10;2.33;;;19.80;99.90;;;;;;5037255;28;20257;-78
2021/07/31 10:14:44;;;;;;;4.13;2.30;;;19.70;99.90;;;;;;5019097;28;20266;-78
2021/07/31 10:17:12;;;;;;;4.03;2.20;;;19.70;99.90;;;;;;5037389;28;20728;-80
2021/07/31 10:19:43;;;;;;;3.93;2.33;;;19.50;99.90;;;;;;5020131;28;20182;-79
2021/07/31 10:22:10;;;;;;;4.40;2.40;;;19.50;99.90;;;;;;5019369;28;20222;-78
2021/07/31 10:24:53;;;;;;;4.93;2.47;;;19.60;99.90;;;;;;5037137;28;20232;-79
2021/07/31 10:27:21;;;;;;;5.73;2.33;;;19.60;99.90;;;;;;5036785;28;20178;-77
2021/07/31 10:29:52;;;;;;;5.10;3.03;;;19.60;99.90;;;;;;5037309;28;20257;-79
2021/07/31 10:32:23;;;;;;;2.93;2.40;;;19.60;99.90;;;;;;5036930;28;20181;-79
2021/07/31 10:34:54;;;;;;;3.60;2.30;;;19.70;99.90;;;;;;5019378;28;20523;-79
2021/07/31 10:37:32;;;;;;;3.10;2.60;;;19.70;99.90;;;;;;5037220;28;20202;-78
2021/07/31 10:40:36;;;;;;;2.57;2.27;;;19.70;99.90;;;;;;5018916;28;20175;-78
2021/07/31 10:43:03;;;;;;;3.87;2.50;;;19.80;99.90;;;;;;5037946;28;20213;-79
2021/07/31 10:45:31;;;;;;;3.67;2.73;;;19.90;99.90;;;;;;5019761;28;20269;-79
2021/07/31 10:47:58;;;;;;;3.43;2.20;;;20.10;99.90;;;;;;5037492;28;20192;-79
2021/07/31 10:50:27;;;;;;;3.23;2.57;;;20.10;99.90;;;;;;5037060;28;20170;-79
2021/07/31 10:53:00;;;;;;;3.27;2.20;;;20.30;99.90;;;;;;5037267;28;20198;-79
2021/07/31 10:55:38;;;;;;;4.80;2.50;;;20.40;99.90;;;;;;5037325;28;20236;-79
2021/07/31 10:58:12;;;;;;;4.43;2.10;;;20.50;99.90;;;;;;5037242;28;20280;-79
2021/07/31 11:00:42;;;;;;;5.53;2.30;;;20.70;99.90;;;;;;5037281;28;20528;-79
2021/07/31 11:03:23;;;;;;;5.63;2.27;;;20.70;99.90;;;;;;5028053;28;20240;-79
2021/07/31 11:05:49;;;;;;;2.67;2.07;;;21.00;99.90;;;;;;5042559;28;20170;-79
2021/07/31 11:08:47;;;;;;;3.37;2.00;;;21.10;99.90;;;;;;5019290;28;20190;-77
2021/07/31 11:11:15;;;;;;;4.03;2.30;;;21.10;99.90;;;;;;5036889;28;20170;-79
2021/07/31 11:13:41;;;;;;;4.67;1.80;;;21.20;99.90;;;;;;5036897;28;20232;-79
2021/07/31 11:16:13;;;;;;;3.33;1.80;;;21.30;99.90;;;;;;5036560;28;20182;-79
2021/07/31 11:18:42;;;;;;;4.50;1.80;;;21.40;99.90;;;;;;5036854;28;20284;-79
2021/07/31 11:21:17;;;;;;;3.73;1.97;;;21.50;99.90;;;;;;5018735;28;20186;-79
2021/07/31 11:23:48;;;;;;;3.67;1.77;;;21.60;99.90;;;;;;5036683;28;20206;-78
2021/07/31 11:26:39;;;;;;;5.03;1.60;;;21.80;99.90;;;;;;5017591;28;20202;-79
2021/07/31 11:29:12;;;;;;;1.90;1.27;;;21.80;99.90;;;;;;5030495;28;20591;-79
2021/07/31 11:31:39;;;;;;;5.63;1.70;;;21.70;99.90;;;;;;5035020;28;20197;-79
2021/07/31 11:34:08;;;;;;;5.27;1.50;;;21.80;99.90;;;;;;5036186;28;20178;-79
2021/07/31 11:36:37;;;;;;;2.70;1.50;;;22.00;99.90;;;;;;5036108;28;20178;-79
2021/07/31 11:39:09;;;;;;;2.67;1.60;;;22.00;99.90;;;;;;5034485;28;20273;-79
2021/07/31 11:41:43;;;;;;;3.00;1.40;;;22.00;99.90;;;;;;5036280;28;20179;-79
2021/07/31 11:44:10;;;;;;;3.77;1.70;;;22.00;99.90;;;;;;5034620;28;20180;-79
2021/07/31 11:46:37;;;;;;;3.53;1.43;;;22.10;99.90;;;;;;5035509;28;20176;-79
2021/07/31 11:49:12;;;;;;;2.50;1.50;;;22.00;99.90;;;;;;5034214;28;20236;-79
2021/07/31 11:51:45;;;;;;;2.50;1.67;;;22.10;99.90;;;;;;5036274;28;20178;-79
2021/07/31 11:54:12;;;;;;;3.50;1.60;;;22.20;99.90;;;;;;5036743;28;20178;-78
2021/07/31 11:56:39;;;;;;;2.30;1.70;;;22.40;99.90;;;;;;5036302;28;20185;-79
2021/07/31 11:59:05;;;;;;;4.03;1.13;;;22.40;99.90;;;;;;5034327;28;20206;-79
2021/07/31 12:01:35;;;;;;;3.73;1.40;;;22.40;99.90;;;;;;5034994;28;20193;-77
2021/07/31 12:04:02;;;;;;;4.93;1.57;;;22.50;99.90;;;;;;5035531;28;20225;-79
2021/07/31 12:06:37;;;;;;;3.13;1.20;;;22.40;99.90;;;;;;5035002;28;20174;-79
2021/07/31 12:09:18;;;;;;;3.07;1.40;;;22.40;99.90;;;;;;5035134;28;20198;-79
2021/07/31 12:11:44;;;;;;;4.00;1.50;;;22.40;99.90;;;;;;5033911;28;20213;-79
2021/07/31 12:14:34;;;;;;;2.43;1.43;;;22.50;99.90;;;;;;5034918;28;20181;-78
2021/07/31 12:17:23;;;;;;;3.63;1.77;;;22.60;99.90;;;;;;5035076;28;20224;-79
2021/07/31 12:19:53;;;;;;;4.73;1.47;;;22.60;99.90;;;;;;5013578;28;20182;-79
2021/07/31 12:22:27;;;;;;;2.50;1.07;;;22.60;99.90;;;;;;5034824;28;20241;-79
2021/07/31 12:25:13;;;;;;;3.83;1.37;;;22.60;99.90;;;;;;5034792;28;20224;-78
2021/07/31 12:28:12;;;;;;;2.33;1.57;;;22.70;99.90;;;;;;5034772;28;20210;-78
2021/07/31 12:30:42;;;;;;;1.80;1.27;;;22.80;99.90;;;;;;5055574;23;20227;-80
2021/07/31 12:33:08;;;;;;;2.17;1.30;;;22.60;99.90;;;;;;5009735;28;20248;-78
2021/07/31 12:35:45;;;;;;;3.00;1.40;;;22.70;99.90;;;;;;5010562;28;20175;-79
2021/07/31 12:38:18;;;;;;;2.10;1.20;;;22.80;99.90;;;;;;5024706;28;20167;-79
2021/07/31 12:40:45;;;;;;;3.73;1.20;;;22.90;99.90;;;;;;5004186;28;20206;-79
2021/07/31 12:43:12;;;;;;;1.30;1.07;;;22.90;99.90;;;;;;5021168;28;20543;-81
2021/07/31 12:45:43;;;;;;;2.43;1.30;;;23.00;99.90;;;;;;5022968;28;20214;-80
2021/07/31 12:48:09;;;;;;;2.10;0.97;;;22.90;99.90;;;;;;5023184;28;20167;-79